Featherstone, United Kingdom
Current Conditions -  °F | °C
As of 10:20 AM on Saturday 22 Nov 2014 (Local Time) from EGBB Reporting Station
Drizzle Drizzle  
Wind Chill: 13°   Ceiling: 3000
Heat Index: 13°   Visibility: 3mi
Dew Point: 12°   Wind: 6mph
Humidity: 94%   Direction: 160°SSE
Pressure: 29.85"   Gusts: NA
Location:  52.64°N, 2.09°W
Report Text: EGBB 221020Z 16005KT 5000 DZ SCT014 BKN030 13/12 Q1011
Loading
Personal Weather Stations






























Interactive Weather Map New forecast layout! Learn more

10-Day Weather Forecast

Advertisements
Track Severe Weather on mobile